Afton Municipal Airport, WY

8:32 AM MST on November 12, 2019 (GMT -0700)
Afton Municipal

Weather History for KAFO - September, 2019

Change the Weather History Date:

Thursday, September 5, 2019

  Actual Average Record
Temperature  
Mean Temperature 65 °F -  
Max Temperature 84 °F 77 °F 80 °F (2017)
Min Temperature 46 °F 36 °F 32 °F (2018)
Growing Degree Days 15 (Base 50)    
Moisture  
Dew Point 44 °F    
Average Humidity 51    
Maximum Humidity 94    
Minimum Humidity 23    
Precipitation  
Precipitation 0.00 in - - ()
Sea Level Pressure  
Sea Level Pressure 30.33 in    
Wind  
Wind Speed 4 mph ()    
Max Wind Speed 26 mph    
Max Gust Speed 34 mph    
Visibility 10.0 miles    
Events Rain , Thunderstorm    
Averages and records for this station are not official NWS values.
T = Trace of Precipitation, MM = Missing Value Source: Averaged Metar Reports

Daily Weather History Graph

Daily Weather History Graph

Search for Another Location

Airport or City:

Astronomy

Sep. 05, 2019 Rise Set
Actual Time 6:52 AM MDT 7:51 PM MDT
Civil Twilight 6:23 AM MDT 8:20 PM MDT
Nautical Twilight 5:49 AM MDT 8:54 PM MDT
Astronomical Twilight 5:13 AM MDT 9:30 PM MDT
Moon 2:12 PM MDT (9/5) 11:59 PM MDT (9/5)
Length of Visible Light 13h 56m
Length of Day
12h 58m
Waxing Crescent, 46% of the Moon is Illuminated
Sep 5
Waxing Crescent
Sep 5
First Quarter
Sep 13
Full
Sep 21
Last Quarter
Sep 28
New

Hourly Weather History & Observations

Time (MDT) Temp. Dew Point Humidity Pressure Visibility Wind Dir Wind Speed Gust Speed Precip Events Conditions
12:15 AM 57.2 °F 39.2 °F 51% 30.27 in 10.0 mi Calm Calm - N/A   Clear
12:35 AM 53.6 °F 39.2 °F 58% 30.28 in 10.0 mi SE 3.5 mph - N/A   Clear
12:55 AM 55.4 °F 41.0 °F 58% 30.28 in 10.0 mi South 3.5 mph - N/A   Clear
1:15 AM 53.6 °F 41.0 °F 62% 30.29 in 10.0 mi Calm Calm - N/A   Clear
1:35 AM 55.4 °F 41.0 °F 58% 30.29 in 10.0 mi Calm Calm - N/A   Clear
1:55 AM 53.6 °F 41.0 °F 62% 30.30 in 10.0 mi SE 5.8 mph - N/A   Scattered Clouds
2:15 AM 59.0 °F 39.2 °F 48% 30.30 in 10.0 mi SE 8.1 mph - N/A   Mostly Cloudy
2:35 AM 57.2 °F 42.8 °F 59% 30.28 in 10.0 mi West 3.5 mph - N/A   Mostly Cloudy
2:55 AM 59.0 °F 39.2 °F 48% 30.29 in 10.0 mi South 8.1 mph - N/A   Mostly Cloudy
3:15 AM 59.0 °F 39.2 °F 48% 30.30 in 10.0 mi ENE 6.9 mph - N/A   Mostly Cloudy
3:35 AM 59.0 °F 41.0 °F 51% 30.29 in 10.0 mi NNW 5.8 mph - N/A   Scattered Clouds
3:55 AM 53.6 °F 42.8 °F 67% 30.31 in 10.0 mi NE 3.5 mph - N/A   Clear
4:15 AM 55.4 °F 41.0 °F 58% 30.32 in 10.0 mi NNE 3.5 mph - N/A   Clear
4:35 AM 53.6 °F 41.0 °F 62% 30.32 in 10.0 mi Calm Calm - N/A   Clear
4:55 AM 51.8 °F 41.0 °F 67% 30.32 in 10.0 mi SW 3.5 mph - N/A   Clear
5:15 AM 51.8 °F 39.2 °F 62% 30.32 in 10.0 mi South 3.5 mph - N/A   Clear
5:35 AM 50.0 °F 39.2 °F 66% 30.32 in 10.0 mi ESE 3.5 mph - N/A   Clear
5:55 AM 51.8 °F 39.2 °F 62% 30.33 in 10.0 mi SE 3.5 mph - N/A   Clear
6:15 AM 53.6 °F 39.2 °F 58% 30.34 in 10.0 mi Calm Calm - N/A   Scattered Clouds
6:35 AM 50.0 °F 39.2 °F 66% 30.34 in 10.0 mi South 3.5 mph - N/A   Scattered Clouds
6:55 AM 46.4 °F 39.2 °F 76% 30.34 in 10.0 mi Calm Calm - N/A   Clear
7:15 AM 50.0 °F 39.2 °F 66% 30.35 in 10.0 mi SE 3.5 mph - N/A   Clear
7:35 AM 50.0 °F 39.2 °F 66% 30.35 in 10.0 mi SSE 5.8 mph - N/A   Clear
7:55 AM 51.8 °F 39.2 °F 62% 30.35 in 10.0 mi ESE 3.5 mph - N/A   Clear
8:15 AM 55.4 °F 41.0 °F 58% 30.36 in 10.0 mi Calm Calm - N/A   Clear
8:35 AM 59.0 °F 41.0 °F 51% 30.36 in 10.0 mi Calm Calm - N/A   Clear
8:55 AM 60.8 °F 41.0 °F 48% 30.36 in 10.0 mi Calm Calm - N/A   Clear
9:15 AM 62.6 °F 42.8 °F 48% 30.36 in 10.0 mi Calm Calm - N/A   Clear
9:35 AM 66.2 °F 41.0 °F 40% 30.36 in 10.0 mi Calm Calm - N/A   Clear
9:55 AM 69.8 °F 41.0 °F 35% 30.36 in 10.0 mi Calm Calm - N/A   Clear
10:15 AM 71.6 °F 42.8 °F 35% 30.36 in 10.0 mi Calm Calm - N/A   Clear
10:35 AM 71.6 °F 42.8 °F 35% 30.36 in 10.0 mi Calm Calm - N/A   Clear
10:55 AM 73.4 °F 42.8 °F 33% 30.36 in 10.0 mi NNW 3.5 mph - N/A   Clear
11:15 AM 77.0 °F 44.6 °F 32% 30.35 in 10.0 mi North 3.5 mph - N/A   Clear
11:35 AM 78.8 °F 42.8 °F 28% 30.35 in 10.0 mi Calm Calm - N/A   Clear
11:55 AM 82.4 °F 42.8 °F 25% 30.34 in 10.0 mi ENE 4.6 mph - N/A   Clear
12:15 PM 80.6 °F 42.8 °F 26% 30.34 in 10.0 mi ESE 4.6 mph - N/A   Clear
12:35 PM 84.2 °F 42.8 °F 23% 30.33 in 10.0 mi ESE 6.9 mph - N/A   Clear
12:55 PM 82.4 °F 42.8 °F 25% 30.33 in 10.0 mi NNE 3.5 mph - N/A   Clear
1:15 PM 82.4 °F 42.8 °F 25% 30.33 in 10.0 mi NW 3.5 mph - N/A   Clear
1:35 PM 82.4 °F 42.8 °F 25% 30.33 in 10.0 mi North 5.8 mph - N/A   Clear
1:55 PM 82.4 °F 44.6 °F 26% 30.32 in 10.0 mi North 3.5 mph - N/A   Scattered Clouds
2:15 PM 82.4 °F 42.8 °F 25% 30.31 in 10.0 mi North 4.6 mph - N/A   Scattered Clouds
2:35 PM 82.4 °F 42.8 °F 25% 30.31 in 10.0 mi North 5.8 mph - N/A   Scattered Clouds
2:55 PM 80.6 °F 42.8 °F 26% 30.30 in 10.0 mi NNE 5.8 mph - N/A   Scattered Clouds
3:15 PM 82.4 °F 42.8 °F 25% 30.30 in 10.0 mi NE 8.1 mph - N/A   Mostly Cloudy
3:35 PM 80.6 °F 42.8 °F 26% 30.29 in 10.0 mi NE 4.6 mph - N/A   Overcast
3:55 PM 78.8 °F 50.0 °F 36% 30.28 in 10.0 mi NNE 4.6 mph - N/A   Mostly Cloudy
4:15 PM 78.8 °F 46.4 °F 32% 30.29 in 10.0 mi SSE 16.1 mph 27.6 mph N/A   Mostly Cloudy
4:35 PM 71.6 °F 44.6 °F 38% 30.29 in 10.0 mi East 26.5 mph 34.5 mph N/A   Overcast
4:55 PM 73.4 °F 42.8 °F 33% 30.30 in 10.0 mi East 12.7 mph 28.8 mph N/A   Overcast
5:15 PM 73.4 °F 42.8 °F 33% 30.30 in 10.0 mi East 13.8 mph 23.0 mph N/A   Overcast
5:35 PM 77.0 °F 42.8 °F 29% 30.29 in 10.0 mi ENE 10.4 mph - N/A   Overcast
5:55 PM 77.0 °F 44.6 °F 32% 30.29 in 10.0 mi East 6.9 mph - N/A Thunderstorm Mostly Cloudy
6:15 PM 69.8 °F 50.0 °F 49% 30.30 in 10.0 mi South 11.5 mph 18.4 mph N/A   Mostly Cloudy
6:35 PM 69.8 °F 50.0 °F 49% 30.30 in 10.0 mi ESE 10.4 mph 18.4 mph N/A   Mostly Cloudy
6:55 PM 71.6 °F 46.4 °F 41% 30.30 in 10.0 mi ESE 13.8 mph 18.4 mph N/A   Mostly Cloudy
7:15 PM 71.6 °F 44.6 °F 38% 30.31 in 10.0 mi SSE 11.5 mph 16.1 mph N/A   Overcast
7:35 PM 69.8 °F 44.6 °F 40% 30.33 in 10.0 mi SSE 11.5 mph 20.7 mph N/A   Overcast
7:55 PM 64.4 °F 50.0 °F 59% 30.34 in 10.0 mi South 12.7 mph - N/A Rain Light Rain
8:15 PM 62.6 °F 51.8 °F 68% 30.36 in 10.0 mi SSE 11.5 mph - N/A Rain Light Rain
8:35 PM 60.8 °F 51.8 °F 72% 30.37 in 10.0 mi South 15.0 mph 19.6 mph N/A Rain Light Rain
8:55 PM 59.0 °F 53.6 °F 82% 30.37 in 10.0 mi South 17.3 mph - N/A Rain Light Rain
9:15 PM 59.0 °F 53.6 °F 82% 30.37 in 10.0 mi SE 13.8 mph - N/A Rain Light Rain
9:35 PM 62.6 °F 51.8 °F 68% 30.33 in 10.0 mi East 15.0 mph 25.3 mph N/A Rain Light Rain
9:55 PM 60.8 °F 51.8 °F 72% 30.35 in 10.0 mi SW 9.2 mph 24.2 mph N/A   Overcast
10:15 PM 59.0 °F 51.8 °F 77% 30.35 in 10.0 mi South 5.8 mph 9.2 mph N/A   Overcast
10:35 PM 59.0 °F 51.8 °F 77% 30.35 in 10.0 mi Calm Calm - N/A   Scattered Clouds
10:55 PM 59.0 °F 53.6 °F 82% 30.35 in 10.0 mi Calm Calm - N/A   Clear
11:15 PM 55.4 °F 51.8 °F 88% 30.35 in 10.0 mi Calm Calm - N/A   Clear
11:35 PM 55.4 °F 53.6 °F 94% 30.34 in 10.0 mi Calm Calm - N/A   Clear
11:55 PM 55.4 °F 51.8 °F 88% 30.35 in 10.0 mi Calm Calm - N/A   Clear